Huvudsida
METAR-TAF:

METAR-TAF

Flygplatser :

Tin City, Alaska, USA

latitud: 65-34N, longitud: 167-55W, höjd: 83 m

Aktuellt väderrapport

Denna rapport gjordes för 1 timme och 10 minuter sedan, klockan 20:55 UTC
Vind 8 kt från nord/nordost
Temperatur 12°C
Fuktighet 58%
Tryck 1016 hPa
Sikt: 16.1 km
Klar himmel

METAR: PATC 172055Z AUTO 03008KT 10SM CLR 12/04 A3000 RMK AO2 SLP162 T01170044 57004

Tid: 14:05 (22:05 UTC)


TAF: saknas

Aktuella väderrapporter och prognoser från 4000 flygplatser (METAR- och TAF-rapporter).

De tillgängliga stationerna syns som gula och röda prickar på kartan.

För musen över prickarna för att se namnen på stationerna.

Klicka sedan för att få väderrapporter och prognoser.

För att ändra kartan: Klicka på de gröna knapparna med ett svart kors på för att zooma in; den gröna knappen med ett streck på för att zooma ut; eller på de gröna pilarna för angränsande kartor.


METAR-TAF: